sensor_id;sensor_type;location;lat;lon;timestamp;P1;durP1;ratioP1;P2;durP2;ratioP2
16468;SDS011;8345;50.902;6.956;2023-04-24T00:01:40;1.40;;;1.30;;
16468;SDS011;8345;50.902;6.956;2023-04-24T00:04:07;1.67;;;1.20;;
16468;SDS011;8345;50.902;6.956;2023-04-24T00:06:36;0.80;;;0.80;;
16468;SDS011;8345;50.902;6.956;2023-04-24T00:09:03;1.20;;;1.10;;
16468;SDS011;8345;50.902;6.956;2023-04-24T00:11:31;1.20;;;1.10;;
16468;SDS011;8345;50.902;6.956;2023-04-24T00:13:58;1.40;;;1.30;;
16468;SDS011;8345;50.902;6.956;2023-04-24T00:16:26;1.30;;;0.97;;
16468;SDS011;8345;50.902;6.956;2023-04-24T00:18:54;2.57;;;1.60;;
16468;SDS011;8345;50.902;6.956;2023-04-24T00:21:21;1.03;;;0.93;;
16468;SDS011;8345;50.902;6.956;2023-04-24T00:23:50;1.40;;;1.30;;
16468;SDS011;8345;50.902;6.956;2023-04-24T00:26:17;1.30;;;1.13;;
16468;SDS011;8345;50.902;6.956;2023-04-24T00:28:45;1.03;;;0.90;;
16468;SDS011;8345;50.902;6.956;2023-04-24T00:31:12;1.00;;;0.90;;
16468;SDS011;8345;50.902;6.956;2023-04-24T00:33:40;2.50;;;1.23;;
16468;SDS011;8345;50.902;6.956;2023-04-24T00:36:08;1.80;;;1.00;;
16468;SDS011;8345;50.902;6.956;2023-04-24T00:38:35;0.90;;;0.90;;
16468;SDS011;8345;50.902;6.956;2023-04-24T00:41:02;1.00;;;1.00;;
16468;SDS011;8345;50.902;6.956;2023-04-24T00:43:29;1.30;;;1.03;;
16468;SDS011;8345;50.902;6.956;2023-04-24T00:45:57;0.97;;;0.97;;
16468;SDS011;8345;50.902;6.956;2023-04-24T00:48:24;0.83;;;0.83;;
16468;SDS011;8345;50.902;6.956;2023-04-24T00:50:53;1.10;;;1.00;;
16468;SDS011;8345;50.902;6.956;2023-04-24T00:53:20;1.53;;;1.43;;
16468;SDS011;8345;50.902;6.956;2023-04-24T00:55:47;1.07;;;1.00;;
16468;SDS011;8345;50.902;6.956;2023-04-24T00:58:15;1.17;;;1.07;;
16468;SDS011;8345;50.902;6.956;2023-04-24T01:00:42;2.07;;;1.37;;
16468;SDS011;8345;50.902;6.956;2023-04-24T01:03:10;1.33;;;1.20;;
16468;SDS011;8345;50.902;6.956;2023-04-24T01:05:38;1.40;;;1.23;;
16468;SDS011;8345;50.902;6.956;2023-04-24T01:08:06;1.53;;;1.30;;
16468;SDS011;8345;50.902;6.956;2023-04-24T01:10:34;1.70;;;1.40;;
16468;SDS011;8345;50.902;6.956;2023-04-24T01:13:01;1.50;;;1.40;;
16468;SDS011;8345;50.902;6.956;2023-04-24T01:15:28;2.23;;;1.20;;
16468;SDS011;8345;50.902;6.956;2023-04-24T01:17:55;2.53;;;1.10;;
16468;SDS011;8345;50.902;6.956;2023-04-24T01:20:23;1.37;;;1.20;;
16468;SDS011;8345;50.902;6.956;2023-04-24T01:22:52;1.50;;;1.20;;
16468;SDS011;8345;50.902;6.956;2023-04-24T01:25:21;1.40;;;1.30;;
16468;SDS011;8345;50.902;6.956;2023-04-24T01:27:48;1.83;;;1.30;;
16468;SDS011;8345;50.902;6.956;2023-04-24T01:30:16;2.67;;;1.77;;
16468;SDS011;8345;50.902;6.956;2023-04-24T01:32:43;3.20;;;1.87;;
16468;SDS011;8345;50.902;6.956;2023-04-24T01:35:11;2.03;;;1.73;;
16468;SDS011;8345;50.902;6.956;2023-04-24T01:37:38;1.93;;;1.60;;
16468;SDS011;8345;50.902;6.956;2023-04-24T01:40:07;1.80;;;1.70;;
16468;SDS011;8345;50.902;6.956;2023-04-24T01:42:35;2.07;;;1.50;;
16468;SDS011;8345;50.902;6.956;2023-04-24T01:45:02;1.97;;;1.87;;
16468;SDS011;8345;50.902;6.956;2023-04-24T01:47:31;1.93;;;1.70;;
16468;SDS011;8345;50.902;6.956;2023-04-24T01:49:58;2.60;;;2.07;;
16468;SDS011;8345;50.902;6.956;2023-04-24T01:52:25;1.87;;;1.70;;
16468;SDS011;8345;50.902;6.956;2023-04-24T01:54:56;3.30;;;2.67;;
16468;SDS011;8345;50.902;6.956;2023-04-24T01:57:24;3.53;;;3.00;;
16468;SDS011;8345;50.902;6.956;2023-04-24T01:59:52;2.80;;;2.60;;
16468;SDS011;8345;50.902;6.956;2023-04-24T02:02:19;3.47;;;2.90;;
16468;SDS011;8345;50.902;6.956;2023-04-24T02:04:48;3.57;;;3.27;;
16468;SDS011;8345;50.902;6.956;2023-04-24T02:07:16;3.60;;;3.10;;
16468;SDS011;8345;50.902;6.956;2023-04-24T02:09:43;3.47;;;3.00;;
16468;SDS011;8345;50.902;6.956;2023-04-24T02:12:10;3.80;;;3.37;;
16468;SDS011;8345;50.902;6.956;2023-04-24T02:14:39;3.90;;;3.43;;
16468;SDS011;8345;50.902;6.956;2023-04-24T02:17:07;3.77;;;3.47;;
16468;SDS011;8345;50.902;6.956;2023-04-24T02:19:34;4.00;;;3.60;;
16468;SDS011;8345;50.902;6.956;2023-04-24T02:22:01;4.80;;;3.23;;
16468;SDS011;8345;50.902;6.956;2023-04-24T02:24:29;3.50;;;3.20;;
16468;SDS011;8345;50.902;6.956;2023-04-24T02:26:56;5.33;;;4.43;;
16468;SDS011;8345;50.902;6.956;2023-04-24T02:29:23;4.37;;;3.97;;
16468;SDS011;8345;50.902;6.956;2023-04-24T02:31:52;3.80;;;3.50;;
16468;SDS011;8345;50.902;6.956;2023-04-24T02:34:19;4.47;;;4.07;;
16468;SDS011;8345;50.902;6.956;2023-04-24T02:36:46;5.17;;;4.77;;
16468;SDS011;8345;50.902;6.956;2023-04-24T02:39:13;5.57;;;4.57;;
16468;SDS011;8345;50.902;6.956;2023-04-24T02:41:41;5.67;;;4.50;;
16468;SDS011;8345;50.902;6.956;2023-04-24T02:44:08;5.53;;;4.53;;
16468;SDS011;8345;50.902;6.956;2023-04-24T02:46:35;5.60;;;5.00;;
16468;SDS011;8345;50.902;6.956;2023-04-24T02:49:04;5.47;;;4.60;;
16468;SDS011;8345;50.902;6.956;2023-04-24T02:51:31;5.73;;;5.13;;
16468;SDS011;8345;50.902;6.956;2023-04-24T02:53:58;6.63;;;5.63;;
16468;SDS011;8345;50.902;6.956;2023-04-24T02:56:26;5.67;;;4.97;;
16468;SDS011;8345;50.902;6.956;2023-04-24T02:58:53;5.50;;;5.00;;
16468;SDS011;8345;50.902;6.956;2023-04-24T03:01:20;6.23;;;5.37;;
16468;SDS011;8345;50.902;6.956;2023-04-24T03:03:47;5.90;;;5.10;;
16468;SDS011;8345;50.902;6.956;2023-04-24T03:06:16;5.90;;;5.30;;
16468;SDS011;8345;50.902;6.956;2023-04-24T03:08:43;5.87;;;5.27;;
16468;SDS011;8345;50.902;6.956;2023-04-24T03:11:10;5.63;;;4.93;;
16468;SDS011;8345;50.902;6.956;2023-04-24T03:13:37;5.67;;;4.97;;
16468;SDS011;8345;50.902;6.956;2023-04-24T03:16:04;8.63;;;4.97;;
16468;SDS011;8345;50.902;6.956;2023-04-24T03:18:32;5.20;;;4.80;;
16468;SDS011;8345;50.902;6.956;2023-04-24T03:20:59;5.03;;;4.53;;
16468;SDS011;8345;50.902;6.956;2023-04-24T03:23:29;5.60;;;4.93;;
16468;SDS011;8345;50.902;6.956;2023-04-24T03:25:57;5.40;;;4.70;;
16468;SDS011;8345;50.902;6.956;2023-04-24T03:28:24;6.13;;;4.93;;
16468;SDS011;8345;50.902;6.956;2023-04-24T03:30:51;5.80;;;5.30;;
16468;SDS011;8345;50.902;6.956;2023-04-24T03:33:18;5.60;;;5.10;;
16468;SDS011;8345;50.902;6.956;2023-04-24T03:35:45;5.77;;;4.67;;
16468;SDS011;8345;50.902;6.956;2023-04-24T03:38:12;6.70;;;5.00;;
16468;SDS011;8345;50.902;6.956;2023-04-24T03:40:41;5.33;;;4.87;;
16468;SDS011;8345;50.902;6.956;2023-04-24T03:43:08;5.20;;;4.70;;
16468;SDS011;8345;50.902;6.956;2023-04-24T03:45:35;6.20;;;5.60;;
16468;SDS011;8345;50.902;6.956;2023-04-24T03:48:03;6.70;;;5.10;;
16468;SDS011;8345;50.902;6.956;2023-04-24T03:50:30;6.17;;;4.90;;
16468;SDS011;8345;50.902;6.956;2023-04-24T03:52:57;5.57;;;5.00;;
16468;SDS011;8345;50.902;6.956;2023-04-24T03:55:24;5.30;;;4.80;;
16468;SDS011;8345;50.902;6.956;2023-04-24T03:57:53;5.97;;;5.33;;
16468;SDS011;8345;50.902;6.956;2023-04-24T04:00:20;6.17;;;5.17;;
16468;SDS011;8345;50.902;6.956;2023-04-24T04:02:47;6.00;;;5.33;;
16468;SDS011;8345;50.902;6.956;2023-04-24T04:05:15;5.50;;;5.00;;
16468;SDS011;8345;50.902;6.956;2023-04-24T04:07:42;6.37;;;5.77;;
16468;SDS011;8345;50.902;6.956;2023-04-24T04:10:09;5.90;;;5.30;;
16468;SDS011;8345;50.902;6.956;2023-04-24T04:12:36;7.93;;;5.47;;
16468;SDS011;8345;50.902;6.956;2023-04-24T04:15:05;5.97;;;5.33;;
16468;SDS011;8345;50.902;6.956;2023-04-24T04:17:33;5.20;;;4.60;;
16468;SDS011;8345;50.902;6.956;2023-04-24T04:20:00;5.67;;;4.53;;
16468;SDS011;8345;50.902;6.956;2023-04-24T04:22:32;5.63;;;5.13;;
16468;SDS011;8345;50.902;6.956;2023-04-24T04:24:59;5.87;;;4.63;;
16468;SDS011;8345;50.902;6.956;2023-04-24T04:27:26;5.37;;;4.83;;
16468;SDS011;8345;50.902;6.956;2023-04-24T04:29:57;5.97;;;4.77;;
16468;SDS011;8345;50.902;6.956;2023-04-24T04:32:25;8.67;;;4.80;;
16468;SDS011;8345;50.902;6.956;2023-04-24T04:34:53;5.73;;;5.13;;
16468;SDS011;8345;50.902;6.956;2023-04-24T04:37:20;21.83;;;15.97;;
16468;SDS011;8345;50.902;6.956;2023-04-24T04:39:47;17.67;;;12.07;;
16468;SDS011;8345;50.902;6.956;2023-04-24T04:42:15;8.70;;;7.10;;
16468;SDS011;8345;50.902;6.956;2023-04-24T04:44:42;6.37;;;5.27;;
16468;SDS011;8345;50.902;6.956;2023-04-24T04:47:09;7.13;;;5.57;;
16468;SDS011;8345;50.902;6.956;2023-04-24T04:49:38;5.67;;;5.17;;
16468;SDS011;8345;50.902;6.956;2023-04-24T04:52:06;6.23;;;5.10;;
16468;SDS011;8345;50.902;6.956;2023-04-24T04:54:33;5.83;;;5.13;;
16468;SDS011;8345;50.902;6.956;2023-04-24T04:57:00;5.57;;;4.87;;
16468;SDS011;8345;50.902;6.956;2023-04-24T04:59:27;7.27;;;4.63;;
16468;SDS011;8345;50.902;6.956;2023-04-24T05:01:55;5.60;;;4.60;;
16468;SDS011;8345;50.902;6.956;2023-04-24T05:04:22;5.40;;;4.80;;
16468;SDS011;8345;50.902;6.956;2023-04-24T05:06:50;5.10;;;4.70;;
16468;SDS011;8345;50.902;6.956;2023-04-24T05:09:18;5.80;;;4.80;;
16468;SDS011;8345;50.902;6.956;2023-04-24T05:11:45;5.57;;;4.90;;
16468;SDS011;8345;50.902;6.956;2023-04-24T05:14:12;5.47;;;4.87;;
16468;SDS011;8345;50.902;6.956;2023-04-24T05:16:39;5.43;;;4.80;;
16468;SDS011;8345;50.902;6.956;2023-04-24T05:19:06;6.10;;;5.10;;
16468;SDS011;8345;50.902;6.956;2023-04-24T05:21:33;5.80;;;5.20;;
16468;SDS011;8345;50.902;6.956;2023-04-24T05:24:02;7.07;;;5.27;;
16468;SDS011;8345;50.902;6.956;2023-04-24T05:26:30;5.40;;;4.90;;
16468;SDS011;8345;50.902;6.956;2023-04-24T05:28:57;5.30;;;4.87;;
16468;SDS011;8345;50.902;6.956;2023-04-24T05:31:24;5.37;;;4.87;;
16468;SDS011;8345;50.902;6.956;2023-04-24T05:33:51;5.60;;;5.10;;
16468;SDS011;8345;50.902;6.956;2023-04-24T05:36:18;6.13;;;5.50;;
16468;SDS011;8345;50.902;6.956;2023-04-24T05:38:45;5.57;;;5.00;;
16468;SDS011;8345;50.902;6.956;2023-04-24T05:41:14;6.27;;;5.43;;
16468;SDS011;8345;50.902;6.956;2023-04-24T05:43:41;5.97;;;5.37;;
16468;SDS011;8345;50.902;6.956;2023-04-24T05:46:08;6.07;;;5.50;;
16468;SDS011;8345;50.902;6.956;2023-04-24T05:48:35;6.50;;;5.77;;
16468;SDS011;8345;50.902;6.956;2023-04-24T05:51:03;8.07;;;5.90;;
16468;SDS011;8345;50.902;6.956;2023-04-24T05:53:30;7.03;;;5.90;;
16468;SDS011;8345;50.902;6.956;2023-04-24T05:55:57;6.57;;;5.90;;
16468;SDS011;8345;50.902;6.956;2023-04-24T05:58:26;5.90;;;5.30;;
16468;SDS011;8345;50.902;6.956;2023-04-24T06:00:53;6.70;;;6.00;;
16468;SDS011;8345;50.902;6.956;2023-04-24T06:03:21;6.27;;;5.67;;
16468;SDS011;8345;50.902;6.956;2023-04-24T06:05:49;6.57;;;5.93;;
16468;SDS011;8345;50.902;6.956;2023-04-24T06:08:16;9.30;;;6.30;;
16468;SDS011;8345;50.902;6.956;2023-04-24T06:10:43;5.70;;;4.77;;
16468;SDS011;8345;50.902;6.956;2023-04-24T06:13:11;5.40;;;4.97;;
16468;SDS011;8345;50.902;6.956;2023-04-24T06:15:39;6.60;;;5.37;;
16468;SDS011;8345;50.902;6.956;2023-04-24T06:18:07;6.67;;;5.70;;
16468;SDS011;8345;50.902;6.956;2023-04-24T06:20:35;5.87;;;5.17;;
16468;SDS011;8345;50.902;6.956;2023-04-24T06:23:02;6.83;;;4.77;;
16468;SDS011;8345;50.902;6.956;2023-04-24T06:25:29;5.03;;;4.53;;
16468;SDS011;8345;50.902;6.956;2023-04-24T06:27:56;5.10;;;4.60;;
16468;SDS011;8345;50.902;6.956;2023-04-24T06:30:24;5.13;;;4.40;;
16468;SDS011;8345;50.902;6.956;2023-04-24T06:32:53;4.50;;;4.10;;
16468;SDS011;8345;50.902;6.956;2023-04-24T06:35:20;6.93;;;4.70;;
16468;SDS011;8345;50.902;6.956;2023-04-24T06:37:48;3.73;;;3.10;;
16468;SDS011;8345;50.902;6.956;2023-04-24T06:40:15;5.37;;;3.90;;
16468;SDS011;8345;50.902;6.956;2023-04-24T06:42:43;3.50;;;2.53;;
16468;SDS011;8345;50.902;6.956;2023-04-24T06:45:10;2.60;;;2.40;;
16468;SDS011;8345;50.902;6.956;2023-04-24T06:47:37;3.13;;;2.67;;
16468;SDS011;8345;50.902;6.956;2023-04-24T06:50:06;3.40;;;2.53;;
16468;SDS011;8345;50.902;6.956;2023-04-24T06:52:34;3.00;;;2.57;;
16468;SDS011;8345;50.902;6.956;2023-04-24T06:55:01;2.63;;;2.37;;
16468;SDS011;8345;50.902;6.956;2023-04-24T06:57:29;3.07;;;2.50;;
16468;SDS011;8345;50.902;6.956;2023-04-24T06:59:56;2.53;;;2.20;;
16468;SDS011;8345;50.902;6.956;2023-04-24T07:02:23;2.27;;;2.07;;
16468;SDS011;8345;50.902;6.956;2023-04-24T07:04:50;2.97;;;2.23;;
16468;SDS011;8345;50.902;6.956;2023-04-24T07:07:19;3.13;;;2.63;;
16468;SDS011;8345;50.902;6.956;2023-04-24T07:09:46;2.40;;;2.20;;
16468;SDS011;8345;50.902;6.956;2023-04-24T07:12:13;5.77;;;2.40;;
16468;SDS011;8345;50.902;6.956;2023-04-24T07:14:42;4.30;;;2.20;;
16468;SDS011;8345;50.902;6.956;2023-04-24T07:17:09;3.67;;;2.40;;
16468;SDS011;8345;50.902;6.956;2023-04-24T07:19:38;2.10;;;1.90;;
16468;SDS011;8345;50.902;6.956;2023-04-24T07:22:05;2.10;;;1.90;;
16468;SDS011;8345;50.902;6.956;2023-04-24T07:24:34;2.50;;;1.90;;
16468;SDS011;8345;50.902;6.956;2023-04-24T07:27:01;2.27;;;2.07;;
16468;SDS011;8345;50.902;6.956;2023-04-24T07:29:28;2.63;;;2.00;;
16468;SDS011;8345;50.902;6.956;2023-04-24T07:31:55;2.60;;;2.30;;
16468;SDS011;8345;50.902;6.956;2023-04-24T07:34:22;2.37;;;2.17;;
16468;SDS011;8345;50.902;6.956;2023-04-24T07:36:49;2.60;;;2.40;;
16468;SDS011;8345;50.902;6.956;2023-04-24T07:39:17;2.77;;;2.57;;
16468;SDS011;8345;50.902;6.956;2023-04-24T07:41:46;2.60;;;2.40;;
16468;SDS011;8345;50.902;6.956;2023-04-24T07:44:13;1.83;;;1.70;;
16468;SDS011;8345;50.902;6.956;2023-04-24T07:46:40;2.60;;;1.60;;
16468;SDS011;8345;50.902;6.956;2023-04-24T07:49:08;1.50;;;1.37;;
16468;SDS011;8345;50.902;6.956;2023-04-24T07:51:35;1.93;;;1.40;;
16468;SDS011;8345;50.902;6.956;2023-04-24T07:54:03;2.47;;;1.40;;
16468;SDS011;8345;50.902;6.956;2023-04-24T07:56:31;1.50;;;1.30;;
16468;SDS011;8345;50.902;6.956;2023-04-24T07:59:00;1.30;;;1.17;;
16468;SDS011;8345;50.902;6.956;2023-04-24T08:01:27;2.07;;;1.27;;
16468;SDS011;8345;50.902;6.956;2023-04-24T08:03:54;2.53;;;1.20;;
16468;SDS011;8345;50.902;6.956;2023-04-24T08:06:21;1.27;;;1.10;;
16468;SDS011;8345;50.902;6.956;2023-04-24T08:08:49;1.40;;;1.30;;
16468;SDS011;8345;50.902;6.956;2023-04-24T08:11:16;3.53;;;1.20;;
16468;SDS011;8345;50.902;6.956;2023-04-24T08:13:43;2.07;;;1.57;;
16468;SDS011;8345;50.902;6.956;2023-04-24T08:16:12;1.50;;;1.40;;
16468;SDS011;8345;50.902;6.956;2023-04-24T08:18:39;2.93;;;1.63;;
16468;SDS011;8345;50.902;6.956;2023-04-24T08:21:06;2.37;;;1.40;;
16468;SDS011;8345;50.902;6.956;2023-04-24T08:23:34;1.70;;;1.60;;
16468;SDS011;8345;50.902;6.956;2023-04-24T08:26:01;1.67;;;1.53;;
16468;SDS011;8345;50.902;6.956;2023-04-24T08:28:28;2.50;;;1.40;;
16468;SDS011;8345;50.902;6.956;2023-04-24T08:30:55;2.97;;;1.30;;
16468;SDS011;8345;50.902;6.956;2023-04-24T08:33:24;0.80;;;0.70;;
16468;SDS011;8345;50.902;6.956;2023-04-24T08:35:51;1.03;;;0.90;;
16468;SDS011;8345;50.902;6.956;2023-04-24T08:38:19;0.83;;;0.83;;
16468;SDS011;8345;50.902;6.956;2023-04-24T08:40:46;2.70;;;0.90;;
16468;SDS011;8345;50.902;6.956;2023-04-24T08:43:14;1.57;;;1.47;;
16468;SDS011;8345;50.902;6.956;2023-04-24T08:45:42;1.10;;;0.93;;
16468;SDS011;8345;50.902;6.956;2023-04-24T08:48:09;2.07;;;1.13;;
16468;SDS011;8345;50.902;6.956;2023-04-24T08:50:38;2.27;;;1.60;;
16468;SDS011;8345;50.902;6.956;2023-04-24T08:53:06;2.63;;;1.60;;
16468;SDS011;8345;50.902;6.956;2023-04-24T08:55:34;2.00;;;1.73;;
16468;SDS011;8345;50.902;6.956;2023-04-24T08:58:01;2.33;;;1.90;;
16468;SDS011;8345;50.902;6.956;2023-04-24T09:00:29;3.47;;;2.20;;
16468;SDS011;8345;50.902;6.956;2023-04-24T09:02:56;3.37;;;2.27;;
16468;SDS011;8345;50.902;6.956;2023-04-24T09:05:24;4.37;;;2.90;;
16468;SDS011;8345;50.902;6.956;2023-04-24T09:07:54;3.37;;;2.73;;
16468;SDS011;8345;50.902;6.956;2023-04-24T09:10:22;3.57;;;3.13;;
16468;SDS011;8345;50.902;6.956;2023-04-24T09:12:50;4.67;;;3.37;;
16468;SDS011;8345;50.902;6.956;2023-04-24T09:15:17;3.60;;;3.17;;
16468;SDS011;8345;50.902;6.956;2023-04-24T09:17:45;3.80;;;3.33;;
16468;SDS011;8345;50.902;6.956;2023-04-24T09:20:12;5.10;;;3.80;;
16468;SDS011;8345;50.902;6.956;2023-04-24T09:22:40;6.80;;;4.23;;
16468;SDS011;8345;50.902;6.956;2023-04-24T09:25:10;4.73;;;4.23;;
16468;SDS011;8345;50.902;6.956;2023-04-24T09:27:40;4.87;;;4.37;;
16468;SDS011;8345;50.902;6.956;2023-04-24T09:30:08;4.57;;;4.17;;
16468;SDS011;8345;50.902;6.956;2023-04-24T09:32:35;5.00;;;4.10;;
16468;SDS011;8345;50.902;6.956;2023-04-24T09:35:06;6.10;;;4.53;;
16468;SDS011;8345;50.902;6.956;2023-04-24T09:37:37;6.77;;;5.33;;
16468;SDS011;8345;50.902;6.956;2023-04-24T09:40:17;5.57;;;4.93;;
16468;SDS011;8345;50.902;6.956;2023-04-24T09:42:45;6.03;;;5.10;;
16468;SDS011;8345;50.902;6.956;2023-04-24T09:45:12;5.20;;;4.70;;
16468;SDS011;8345;50.902;6.956;2023-04-24T09:47:40;6.37;;;4.87;;
16468;SDS011;8345;50.902;6.956;2023-04-24T09:50:11;7.20;;;5.40;;
16468;SDS011;8345;50.902;6.956;2023-04-24T09:52:42;7.70;;;5.43;;
16468;SDS011;8345;50.902;6.956;2023-04-24T09:55:14;6.83;;;5.03;;
16468;SDS011;8345;50.902;6.956;2023-04-24T09:57:51;6.63;;;5.77;;
16468;SDS011;8345;50.902;6.956;2023-04-24T10:00:21;5.87;;;5.27;;
16468;SDS011;8345;50.902;6.956;2023-04-24T10:02:55;7.43;;;5.23;;
16468;SDS011;8345;50.902;6.956;2023-04-24T10:05:26;6.63;;;5.77;;
16468;SDS011;8345;50.902;6.956;2023-04-24T10:07:57;6.97;;;5.53;;
16468;SDS011;8345;50.902;6.956;2023-04-24T10:10:25;6.97;;;5.17;;
16468;SDS011;8345;50.902;6.956;2023-04-24T10:12:54;5.90;;;4.73;;
16468;SDS011;8345;50.902;6.956;2023-04-24T10:15:21;6.27;;;4.97;;
16468;SDS011;8345;50.902;6.956;2023-04-24T10:17:49;5.13;;;4.57;;
16468;SDS011;8345;50.902;6.956;2023-04-24T10:20:21;6.00;;;4.57;;
16468;SDS011;8345;50.902;6.956;2023-04-24T10:22:49;5.27;;;4.77;;
16468;SDS011;8345;50.902;6.956;2023-04-24T10:25:18;5.70;;;4.33;;
16468;SDS011;8345;50.902;6.956;2023-04-24T10:27:45;4.63;;;4.23;;
16468;SDS011;8345;50.902;6.956;2023-04-24T10:30:15;4.53;;;3.80;;
16468;SDS011;8345;50.902;6.956;2023-04-24T10:32:42;4.40;;;4.00;;
16468;SDS011;8345;50.902;6.956;2023-04-24T10:35:09;5.30;;;4.13;;
16468;SDS011;8345;50.902;6.956;2023-04-24T10:37:39;5.43;;;3.90;;
16468;SDS011;8345;50.902;6.956;2023-04-24T10:40:07;5.80;;;3.90;;
16468;SDS011;8345;50.902;6.956;2023-04-24T10:42:35;6.13;;;3.67;;
16468;SDS011;8345;50.902;6.956;2023-04-24T10:45:06;6.03;;;3.80;;
16468;SDS011;8345;50.902;6.956;2023-04-24T10:47:40;4.40;;;3.73;;
16468;SDS011;8345;50.902;6.956;2023-04-24T10:50:09;5.63;;;3.90;;
16468;SDS011;8345;50.902;6.956;2023-04-24T10:52:46;4.87;;;3.93;;
16468;SDS011;8345;50.902;6.956;2023-04-24T10:55:15;8.60;;;4.50;;
16468;SDS011;8345;50.902;6.956;2023-04-24T11:00:25;5.40;;;3.80;;
16468;SDS011;8345;50.902;6.956;2023-04-24T11:02:54;5.87;;;4.20;;
16468;SDS011;8345;50.902;6.956;2023-04-24T11:05:22;5.67;;;3.93;;
16468;SDS011;8345;50.902;6.956;2023-04-24T11:10:37;5.37;;;4.10;;
16468;SDS011;8345;50.902;6.956;2023-04-24T11:13:04;6.23;;;4.43;;
16468;SDS011;8345;50.902;6.956;2023-04-24T11:15:31;7.27;;;4.40;;
16468;SDS011;8345;50.902;6.956;2023-04-24T11:18:00;7.67;;;4.40;;
16468;SDS011;8345;50.902;6.956;2023-04-24T11:20:27;6.70;;;4.70;;
16468;SDS011;8345;50.902;6.956;2023-04-24T11:22:55;9.20;;;4.37;;
16468;SDS011;8345;50.902;6.956;2023-04-24T11:25:23;6.47;;;3.87;;
16468;SDS011;8345;50.902;6.956;2023-04-24T11:27:50;7.80;;;4.70;;
16468;SDS011;8345;50.902;6.956;2023-04-24T11:30:17;7.10;;;4.60;;
16468;SDS011;8345;50.902;6.956;2023-04-24T11:32:47;6.93;;;4.17;;
16468;SDS011;8345;50.902;6.956;2023-04-24T11:35:16;7.20;;;4.50;;
16468;SDS011;8345;50.902;6.956;2023-04-24T11:37:44;7.23;;;5.10;;
16468;SDS011;8345;50.902;6.956;2023-04-24T11:40:14;9.67;;;5.47;;
16468;SDS011;8345;50.902;6.956;2023-04-24T11:42:43;9.47;;;5.00;;
16468;SDS011;8345;50.902;6.956;2023-04-24T11:45:11;7.67;;;5.57;;
16468;SDS011;8345;50.902;6.956;2023-04-24T11:47:38;6.20;;;5.10;;
16468;SDS011;8345;50.902;6.956;2023-04-24T11:50:06;5.73;;;4.73;;
16468;SDS011;8345;50.902;6.956;2023-04-24T11:52:38;7.63;;;5.07;;
16468;SDS011;8345;50.902;6.956;2023-04-24T11:55:06;5.67;;;4.67;;
16468;SDS011;8345;50.902;6.956;2023-04-24T11:57:34;8.80;;;4.90;;
16468;SDS011;8345;50.902;6.956;2023-04-24T12:00:01;7.43;;;4.87;;
16468;SDS011;8345;50.902;6.956;2023-04-24T12:02:29;7.00;;;4.47;;
16468;SDS011;8345;50.902;6.956;2023-04-24T12:04:57;8.20;;;4.40;;
16468;SDS011;8345;50.902;6.956;2023-04-24T12:07:24;7.33;;;4.83;;
16468;SDS011;8345;50.902;6.956;2023-04-24T12:09:56;7.97;;;4.80;;
16468;SDS011;8345;50.902;6.956;2023-04-24T12:12:25;7.30;;;4.83;;
16468;SDS011;8345;50.902;6.956;2023-04-24T12:14:53;6.37;;;5.30;;
16468;SDS011;8345;50.902;6.956;2023-04-24T12:17:24;7.23;;;5.23;;
16468;SDS011;8345;50.902;6.956;2023-04-24T12:19:51;9.07;;;5.47;;
16468;SDS011;8345;50.902;6.956;2023-04-24T12:22:19;26.87;;;24.57;;
16468;SDS011;8345;50.902;6.956;2023-04-24T12:24:57;10.13;;;5.20;;
16468;SDS011;8345;50.902;6.956;2023-04-24T12:27:24;8.10;;;4.60;;
16468;SDS011;8345;50.902;6.956;2023-04-24T12:29:52;6.80;;;5.13;;
16468;SDS011;8345;50.902;6.956;2023-04-24T12:32:19;11.07;;;5.73;;
16468;SDS011;8345;50.902;6.956;2023-04-24T12:34:46;7.10;;;5.03;;
16468;SDS011;8345;50.902;6.956;2023-04-24T12:37:14;7.37;;;5.23;;
16468;SDS011;8345;50.902;6.956;2023-04-24T12:39:44;6.23;;;5.20;;
16468;SDS011;8345;50.902;6.956;2023-04-24T12:42:13;8.10;;;4.57;;
16468;SDS011;8345;50.902;6.956;2023-04-24T12:44:40;7.43;;;4.27;;
16468;SDS011;8345;50.902;6.956;2023-04-24T12:47:07;5.53;;;4.23;;
16468;SDS011;8345;50.902;6.956;2023-04-24T12:49:35;6.77;;;4.83;;
16468;SDS011;8345;50.902;6.956;2023-04-24T12:52:02;9.03;;;4.77;;
16468;SDS011;8345;50.902;6.956;2023-04-24T12:54:32;6.87;;;3.73;;
16468;SDS011;8345;50.902;6.956;2023-04-24T12:56:59;8.40;;;4.60;;
16468;SDS011;8345;50.902;6.956;2023-04-24T12:59:28;9.37;;;4.10;;
16468;SDS011;8345;50.902;6.956;2023-04-24T13:01:55;7.27;;;4.23;;
16468;SDS011;8345;50.902;6.956;2023-04-24T13:04:22;7.37;;;4.57;;
16468;SDS011;8345;50.902;6.956;2023-04-24T13:06:49;9.20;;;4.90;;
16468;SDS011;8345;50.902;6.956;2023-04-24T13:09:16;6.63;;;4.80;;
16468;SDS011;8345;50.902;6.956;2023-04-24T13:11:44;9.00;;;5.40;;
16468;SDS011;8345;50.902;6.956;2023-04-24T13:14:11;6.10;;;5.57;;
16468;SDS011;8345;50.902;6.956;2023-04-24T13:16:39;9.07;;;5.70;;
16468;SDS011;8345;50.902;6.956;2023-04-24T13:19:07;9.60;;;5.20;;
16468;SDS011;8345;50.902;6.956;2023-04-24T13:21:34;7.13;;;5.47;;
16468;SDS011;8345;50.902;6.956;2023-04-24T13:24:01;7.97;;;6.07;;
16468;SDS011;8345;50.902;6.956;2023-04-24T13:26:29;9.80;;;5.57;;
16468;SDS011;8345;50.902;6.956;2023-04-24T13:28:57;7.77;;;5.13;;
16468;SDS011;8345;50.902;6.956;2023-04-24T13:31:24;6.30;;;5.50;;
16468;SDS011;8345;50.902;6.956;2023-04-24T13:33:52;7.97;;;5.27;;
16468;SDS011;8345;50.902;6.956;2023-04-24T13:36:19;6.00;;;5.30;;
16468;SDS011;8345;50.902;6.956;2023-04-24T13:38:47;8.03;;;5.13;;
16468;SDS011;8345;50.902;6.956;2023-04-24T13:41:14;7.50;;;5.00;;
16468;SDS011;8345;50.902;6.956;2023-04-24T13:43:41;9.80;;;5.27;;
16468;SDS011;8345;50.902;6.956;2023-04-24T13:46:08;8.90;;;5.50;;
16468;SDS011;8345;50.902;6.956;2023-04-24T13:48:35;8.13;;;5.37;;
16468;SDS011;8345;50.902;6.956;2023-04-24T13:51:04;10.67;;;5.30;;
16468;SDS011;8345;50.902;6.956;2023-04-24T13:53:31;10.53;;;5.53;;
16468;SDS011;8345;50.902;6.956;2023-04-24T13:56:01;7.80;;;5.63;;
16468;SDS011;8345;50.902;6.956;2023-04-24T13:58:28;6.80;;;5.73;;
16468;SDS011;8345;50.902;6.956;2023-04-24T14:00:55;6.93;;;5.53;;
16468;SDS011;8345;50.902;6.956;2023-04-24T14:03:22;10.20;;;5.33;;
16468;SDS011;8345;50.902;6.956;2023-04-24T14:05:50;7.57;;;5.73;;
16468;SDS011;8345;50.902;6.956;2023-04-24T14:08:18;6.33;;;5.73;;
16468;SDS011;8345;50.902;6.956;2023-04-24T14:10:45;7.17;;;5.70;;
16468;SDS011;8345;50.902;6.956;2023-04-24T14:13:13;13.77;;;6.30;;
16468;SDS011;8345;50.902;6.956;2023-04-24T14:15:40;8.73;;;5.37;;
16468;SDS011;8345;50.902;6.956;2023-04-24T14:18:07;6.20;;;5.10;;
16468;SDS011;8345;50.902;6.956;2023-04-24T14:20:34;7.87;;;4.97;;
16468;SDS011;8345;50.902;6.956;2023-04-24T14:23:03;5.83;;;4.53;;
16468;SDS011;8345;50.902;6.956;2023-04-24T14:25:31;6.93;;;4.80;;
16468;SDS011;8345;50.902;6.956;2023-04-24T14:27:58;6.17;;;4.40;;
16468;SDS011;8345;50.902;6.956;2023-04-24T14:30:26;5.70;;;4.80;;
16468;SDS011;8345;50.902;6.956;2023-04-24T14:32:53;7.20;;;4.60;;
16468;SDS011;8345;50.902;6.956;2023-04-24T14:35:20;9.07;;;4.90;;
16468;SDS011;8345;50.902;6.956;2023-04-24T14:37:47;6.47;;;4.23;;
16468;SDS011;8345;50.902;6.956;2023-04-24T14:40:14;6.40;;;4.50;;
16468;SDS011;8345;50.902;6.956;2023-04-24T14:42:43;7.90;;;5.20;;
16468;SDS011;8345;50.902;6.956;2023-04-24T14:45:10;7.87;;;5.10;;
16468;SDS011;8345;50.902;6.956;2023-04-24T14:47:37;7.67;;;4.73;;
16468;SDS011;8345;50.902;6.956;2023-04-24T14:50:05;6.23;;;4.37;;
16468;SDS011;8345;50.902;6.956;2023-04-24T14:52:33;6.33;;;4.27;;
16468;SDS011;8345;50.902;6.956;2023-04-24T14:55:00;6.07;;;4.90;;
16468;SDS011;8345;50.902;6.956;2023-04-24T14:57:28;7.67;;;4.27;;
16468;SDS011;8345;50.902;6.956;2023-04-24T14:59:56;7.17;;;4.70;;
16468;SDS011;8345;50.902;6.956;2023-04-24T15:02:24;8.73;;;4.73;;
16468;SDS011;8345;50.902;6.956;2023-04-24T15:04:51;7.13;;;4.63;;
16468;SDS011;8345;50.902;6.956;2023-04-24T15:07:18;6.77;;;5.07;;
16468;SDS011;8345;50.902;6.956;2023-04-24T15:09:46;7.93;;;5.00;;